Terminal Aerodrome Forecast
Issued by NWS

Home | Current Version | Previous Version | Text Only | Print | Product List | Glossary On
Versions: 1 2 3 4 5 6 7 8 9 10 11 12 13 14 15 16 17 18 19 20 21 22 23 24 25 26 27 28 29 30 31 32 33
000
FTUS43 KDTX 010500
TAFYIP
TAF
KYIP 010523Z 0106/0206 18003KT P6SM FEW050 SCT150
     FM010800 18003KT 4SM BR SCT009
     FM011100 20003KT 2SM BR BKN009
     FM011400 21013G20KT P6SM FEW015 SCT030
     FM011700 21013G20KT P6SM SCT035 BKN070 PROB30 0200/0202 3SM
      TSRA BKN028CB
     FM020200 22012KT P6SM BKN035 OVC070=

USA.gov is the U.S. government's official web portal to all federal, state and local government web resources and services.